sensor_id;sensor_type;location;lat;lon;timestamp;pressure;altitude;pressure_sealevel;temperature;humidity
2268;BME280;11052;43.338;25.502;2022-12-07T00:00:51;100846.88;;;6.45;100.00
2268;BME280;11052;43.338;25.502;2022-12-07T00:03:19;100849.44;;;6.48;100.00
2268;BME280;11052;43.338;25.502;2022-12-07T00:05:46;100849.44;;;6.46;100.00
2268;BME280;11052;43.338;25.502;2022-12-07T00:08:13;100849.44;;;6.46;100.00
2268;BME280;11052;43.338;25.502;2022-12-07T00:10:41;100851.16;;;6.46;100.00
2268;BME280;11052;43.338;25.502;2022-12-07T00:13:08;100849.41;;;6.49;100.00
2268;BME280;11052;43.338;25.502;2022-12-07T00:15:35;100857.97;;;6.56;100.00
2268;BME280;11052;43.338;25.502;2022-12-07T00:18:03;100856.25;;;6.55;100.00
2268;BME280;11052;43.338;25.502;2022-12-07T00:20:30;100859.69;;;6.57;100.00
2268;BME280;11052;43.338;25.502;2022-12-07T00:22:57;100853.69;;;6.56;100.00
2268;BME280;11052;43.338;25.502;2022-12-07T00:25:24;100857.13;;;6.57;100.00
2268;BME280;11052;43.338;25.502;2022-12-07T00:27:53;100856.22;;;6.61;100.00
2268;BME280;11052;43.338;25.502;2022-12-07T00:30:22;100852.81;;;6.56;100.00
2268;BME280;11052;43.338;25.502;2022-12-07T00:32:49;100859.66;;;6.62;100.00
2268;BME280;11052;43.338;25.502;2022-12-07T00:35:16;100852.81;;;6.59;100.00
2268;BME280;11052;43.338;25.502;2022-12-07T00:37:44;100857.94;;;6.62;100.00
2268;BME280;11052;43.338;25.502;2022-12-07T00:40:11;100860.50;;;6.65;100.00
2268;BME280;11052;43.338;25.502;2022-12-07T00:42:38;100857.09;;;6.62;100.00
2268;BME280;11052;43.338;25.502;2022-12-07T00:45:08;100846.78;;;6.63;100.00
2268;BME280;11052;43.338;25.502;2022-12-07T00:47:38;100845.91;;;6.64;100.00
2268;BME280;11052;43.338;25.502;2022-12-07T00:50:06;100841.63;;;6.63;100.00
2268;BME280;11052;43.338;25.502;2022-12-07T00:52:33;100856.22;;;6.66;100.00
2268;BME280;11052;43.338;25.502;2022-12-07T00:55:01;100850.19;;;6.67;100.00
2268;BME280;11052;43.338;25.502;2022-12-07T00:57:28;100852.78;;;6.64;100.00
2268;BME280;11052;43.338;25.502;2022-12-07T00:59:56;100853.63;;;6.64;100.00
2268;BME280;11052;43.338;25.502;2022-12-07T01:02:27;100845.06;;;6.62;100.00
2268;BME280;11052;43.338;25.502;2022-12-07T01:04:54;100852.78;;;6.64;100.00
2268;BME280;11052;43.338;25.502;2022-12-07T01:07:21;100842.47;;;6.65;100.00
2268;BME280;11052;43.338;25.502;2022-12-07T01:09:48;100840.78;;;6.60;100.00
2268;BME280;11052;43.338;25.502;2022-12-07T01:12:15;100839.06;;;6.60;100.00
2268;BME280;11052;43.338;25.502;2022-12-07T01:14:43;100833.91;;;6.60;100.00
2268;BME280;11052;43.338;25.502;2022-12-07T01:17:10;100834.75;;;6.62;100.00
2268;BME280;11052;43.338;25.502;2022-12-07T01:19:38;100832.19;;;6.62;100.00
2268;BME280;11052;43.338;25.502;2022-12-07T01:22:06;100832.16;;;6.67;100.00
2268;BME280;11052;43.338;25.502;2022-12-07T01:24:33;100834.75;;;6.65;100.00
2268;BME280;11052;43.338;25.502;2022-12-07T01:27:00;100823.56;;;6.66;100.00
2268;BME280;11052;43.338;25.502;2022-12-07T01:29:27;100819.25;;;6.70;100.00
2268;BME280;11052;43.338;25.502;2022-12-07T01:31:54;100820.13;;;6.70;100.00
2268;BME280;11052;43.338;25.502;2022-12-07T01:34:21;100824.44;;;6.68;100.00
2268;BME280;11052;43.338;25.502;2022-12-07T01:36:49;100821.84;;;6.68;100.00
2268;BME280;11052;43.338;25.502;2022-12-07T01:39:16;100822.69;;;6.70;100.00
2268;BME280;11052;43.338;25.502;2022-12-07T01:41:44;100820.97;;;6.71;100.00
2268;BME280;11052;43.338;25.502;2022-12-07T01:44:15;100810.66;;;6.74;100.00
2268;BME280;11052;43.338;25.502;2022-12-07T01:46:44;100813.22;;;6.74;100.00
2268;BME280;11052;43.338;25.502;2022-12-07T01:49:16;100815.81;;;6.71;100.00
2268;BME280;11052;43.338;25.502;2022-12-07T01:51:46;100805.50;;;6.72;100.00
2268;BME280;11052;43.338;25.502;2022-12-07T01:54:16;100797.81;;;6.68;100.00
2268;BME280;11052;43.338;25.502;2022-12-07T01:56:48;100801.28;;;6.62;100.00
2268;BME280;11052;43.338;25.502;2022-12-07T01:59:17;100797.81;;;6.65;100.00
2268;BME280;11052;43.338;25.502;2022-12-07T02:01:45;100801.28;;;6.62;100.00
2268;BME280;11052;43.338;25.502;2022-12-07T02:04:12;100803.00;;;6.63;100.00
2268;BME280;11052;43.338;25.502;2022-12-07T02:06:41;100795.25;;;6.66;100.00
2268;BME280;11052;43.338;25.502;2022-12-07T02:09:09;100800.38;;;6.71;100.00
2268;BME280;11052;43.338;25.502;2022-12-07T02:11:39;100802.19;;;6.53;100.00
2268;BME280;11052;43.338;25.502;2022-12-07T02:14:07;100814.25;;;6.47;100.00
2268;BME280;11052;43.338;25.502;2022-12-07T02:16:38;100811.72;;;6.36;100.00
2268;BME280;11052;43.338;25.502;2022-12-07T02:19:36;100816.06;;;6.17;100.00
2268;BME280;11052;43.338;25.502;2022-12-07T02:22:18;100807.44;;;6.31;100.00
2268;BME280;11052;43.338;25.502;2022-12-07T02:24:54;100802.31;;;6.23;100.00
2268;BME280;11052;43.338;25.502;2022-12-07T02:27:46;100804.03;;;6.25;100.00
2268;BME280;11052;43.338;25.502;2022-12-07T02:30:16;100792.91;;;6.20;100.00
2268;BME280;11052;43.338;25.502;2022-12-07T02:32:51;100797.22;;;6.15;100.00
2268;BME280;11052;43.338;25.502;2022-12-07T02:35:25;100799.78;;;6.14;100.00
2268;BME280;11052;43.338;25.502;2022-12-07T02:38:00;100792.03;;;6.20;100.00
2268;BME280;11052;43.338;25.502;2022-12-07T02:40:32;100783.44;;;6.22;100.00
2268;BME280;11052;43.338;25.502;2022-12-07T02:43:04;100797.16;;;6.29;100.00
2268;BME280;11052;43.338;25.502;2022-12-07T02:45:38;100792.03;;;6.23;100.00
2268;BME280;11052;43.338;25.502;2022-12-07T02:48:07;100794.59;;;6.28;100.00
2268;BME280;11052;43.338;25.502;2022-12-07T02:50:35;100786.88;;;6.28;100.00
2268;BME280;11052;43.338;25.502;2022-12-07T02:53:02;100791.16;;;6.25;100.00
2268;BME280;11052;43.338;25.502;2022-12-07T02:55:34;100785.16;;;6.28;100.00
2268;BME280;11052;43.338;25.502;2022-12-07T02:58:23;100790.28;;;6.31;100.00
2268;BME280;11052;43.338;25.502;2022-12-07T03:01:04;100787.69;;;6.33;100.00
2268;BME280;11052;43.338;25.502;2022-12-07T03:03:37;100779.97;;;6.34;100.00
2268;BME280;11052;43.338;25.502;2022-12-07T03:06:11;100778.25;;;6.36;100.00
2268;BME280;11052;43.338;25.502;2022-12-07T03:08:47;100770.50;;;6.39;100.00
2268;BME280;11052;43.338;25.502;2022-12-07T03:11:23;100773.09;;;6.38;100.00
2268;BME280;11052;43.338;25.502;2022-12-07T03:13:59;100773.06;;;6.41;100.00
2268;BME280;11052;43.338;25.502;2022-12-07T03:16:33;100763.63;;;6.40;100.00
2268;BME280;11052;43.338;25.502;2022-12-07T03:19:04;100777.34;;;6.45;100.00
2268;BME280;11052;43.338;25.502;2022-12-07T03:21:36;100773.91;;;6.41;100.00
2268;BME280;11052;43.338;25.502;2022-12-07T03:24:07;100767.91;;;6.42;100.00
2268;BME280;11052;43.338;25.502;2022-12-07T03:26:37;100759.34;;;6.40;100.00
2268;BME280;11052;43.338;25.502;2022-12-07T03:29:11;100761.91;;;6.42;100.00
2268;BME280;11052;43.338;25.502;2022-12-07T03:31:41;100763.63;;;6.43;100.00
2268;BME280;11052;43.338;25.502;2022-12-07T03:34:13;100759.31;;;6.45;100.00
2268;BME280;11052;43.338;25.502;2022-12-07T03:36:46;100757.59;;;6.47;100.00
2268;BME280;11052;43.338;25.502;2022-12-07T03:39:20;100754.16;;;6.43;100.00
2268;BME280;11052;43.338;25.502;2022-12-07T03:41:49;100759.34;;;6.40;100.00
2268;BME280;11052;43.338;25.502;2022-12-07T03:44:17;100758.50;;;6.34;100.00
2268;BME280;11052;43.338;25.502;2022-12-07T03:46:52;100767.09;;;6.33;100.00
2268;BME280;11052;43.338;25.502;2022-12-07T03:49:25;100759.38;;;6.34;100.00
2268;BME280;11052;43.338;25.502;2022-12-07T03:51:59;100758.50;;;6.35;100.00
2268;BME280;11052;43.338;25.502;2022-12-07T03:54:32;100758.50;;;6.35;100.00
2268;BME280;11052;43.338;25.502;2022-12-07T03:57:01;100756.78;;;6.34;100.00
2268;BME280;11052;43.338;25.502;2022-12-07T03:59:30;100767.97;;;6.32;100.00
2268;BME280;11052;43.338;25.502;2022-12-07T04:02:03;100773.09;;;6.36;100.00
2268;BME280;11052;43.338;25.502;2022-12-07T04:04:31;100764.50;;;6.39;100.00
2268;BME280;11052;43.338;25.502;2022-12-07T04:06:58;100762.78;;;6.39;100.00
2268;BME280;11052;43.338;25.502;2022-12-07T04:09:25;100761.03;;;6.41;100.00
2268;BME280;11052;43.338;25.502;2022-12-07T04:11:52;100764.47;;;6.40;100.00
2268;BME280;11052;43.338;25.502;2022-12-07T04:14:20;100753.31;;;6.40;100.00
2268;BME280;11052;43.338;25.502;2022-12-07T04:16:47;100746.47;;;6.40;100.00
2268;BME280;11052;43.338;25.502;2022-12-07T04:19:18;100745.59;;;6.40;100.00
2268;BME280;11052;43.338;25.502;2022-12-07T04:21:46;100743.03;;;6.40;100.00
2268;BME280;11052;43.338;25.502;2022-12-07T04:24:14;100737.91;;;6.37;100.00
2268;BME280;11052;43.338;25.502;2022-12-07T04:26:42;100731.91;;;6.35;100.00
2268;BME280;11052;43.338;25.502;2022-12-07T04:29:10;100734.53;;;6.27;100.00
2268;BME280;11052;43.338;25.502;2022-12-07T04:31:37;100737.97;;;6.21;100.00
2268;BME280;11052;43.338;25.502;2022-12-07T04:34:05;100744.84;;;6.19;100.00
2268;BME280;11052;43.338;25.502;2022-12-07T04:36:34;100745.69;;;6.24;100.00
2268;BME280;11052;43.338;25.502;2022-12-07T04:39:02;100739.69;;;6.22;100.00
2268;BME280;11052;43.338;25.502;2022-12-07T04:41:30;100740.59;;;6.15;100.00
2268;BME280;11052;43.338;25.502;2022-12-07T04:43:59;100738.88;;;6.11;100.00
2268;BME280;11052;43.338;25.502;2022-12-07T04:46:27;100728.59;;;6.13;100.00
2268;BME280;11052;43.338;25.502;2022-12-07T04:48:55;100738.03;;;6.12;100.00
2268;BME280;11052;43.338;25.502;2022-12-07T04:51:24;100748.31;;;6.14;100.00
2268;BME280;11052;43.338;25.502;2022-12-07T04:53:54;100762.03;;;6.14;100.00
2268;BME280;11052;43.338;25.502;2022-12-07T04:56:22;100762.03;;;6.17;100.00
2268;BME280;11052;43.338;25.502;2022-12-07T04:58:51;100763.75;;;6.18;100.00
2268;BME280;11052;43.338;25.502;2022-12-07T05:01:20;100769.72;;;6.20;100.00
2268;BME280;11052;43.338;25.502;2022-12-07T05:03:47;100766.31;;;6.18;100.00
2268;BME280;11052;43.338;25.502;2022-12-07T05:06:15;100763.72;;;6.20;100.00
2268;BME280;11052;43.338;25.502;2022-12-07T05:08:42;100755.13;;;6.22;100.00
2268;BME280;11052;43.338;25.502;2022-12-07T05:11:11;100758.56;;;6.21;100.00
2268;BME280;11052;43.338;25.502;2022-12-07T05:14:00;100761.13;;;6.28;100.00
2268;BME280;11052;43.338;25.502;2022-12-07T05:16:27;100757.69;;;6.27;100.00
2268;BME280;11052;43.338;25.502;2022-12-07T05:18:54;100750.84;;;6.20;100.00
2268;BME280;11052;43.338;25.502;2022-12-07T05:21:22;100746.53;;;6.25;100.00
2268;BME280;11052;43.338;25.502;2022-12-07T05:23:49;100749.13;;;6.25;100.00
2268;BME280;11052;43.338;25.502;2022-12-07T05:26:18;100749.09;;;6.28;100.00
2268;BME280;11052;43.338;25.502;2022-12-07T05:28:45;100737.91;;;6.34;100.00
2268;BME280;11052;43.338;25.502;2022-12-07T05:31:16;100740.50;;;6.29;100.00
2268;BME280;11052;43.338;25.502;2022-12-07T05:33:43;100737.09;;;6.27;100.00
2268;BME280;11052;43.338;25.502;2022-12-07T05:36:10;100739.66;;;6.29;100.00
2268;BME280;11052;43.338;25.502;2022-12-07T05:38:37;100741.41;;;6.20;100.00
2268;BME280;11052;43.338;25.502;2022-12-07T05:41:06;100744.81;;;6.25;100.00
2268;BME280;11052;43.338;25.502;2022-12-07T05:43:34;100741.41;;;6.20;100.00
2268;BME280;11052;43.338;25.502;2022-12-07T05:46:02;100745.72;;;6.20;100.00
2268;BME280;11052;43.338;25.502;2022-12-07T05:48:29;100755.13;;;6.25;100.00
2268;BME280;11052;43.338;25.502;2022-12-07T05:50:56;100754.25;;;6.27;100.00
2268;BME280;11052;43.338;25.502;2022-12-07T05:53:23;100764.53;;;6.30;100.00
2268;BME280;11052;43.338;25.502;2022-12-07T05:55:52;100760.25;;;6.29;100.00
2268;BME280;11052;43.338;25.502;2022-12-07T05:58:19;100754.25;;;6.30;100.00
2268;BME280;11052;43.338;25.502;2022-12-07T06:01:04;100755.97;;;6.29;100.00
2268;BME280;11052;43.338;25.502;2022-12-07T06:03:32;100752.50;;;6.32;100.00
2268;BME280;11052;43.338;25.502;2022-12-07T06:05:59;100754.22;;;6.34;100.00
2268;BME280;11052;43.338;25.502;2022-12-07T06:08:26;100763.66;;;6.37;100.00
2268;BME280;11052;43.338;25.502;2022-12-07T06:10:53;100755.94;;;6.34;100.00
2268;BME280;11052;43.338;25.502;2022-12-07T06:13:45;100749.94;;;6.33;100.00
2268;BME280;11052;43.338;25.502;2022-12-07T06:16:12;100749.16;;;6.14;100.00
2268;BME280;11052;43.338;25.502;2022-12-07T06:18:40;100754.31;;;6.16;100.00
2268;BME280;11052;43.338;25.502;2022-12-07T06:21:07;100756.03;;;6.17;100.00
2268;BME280;11052;43.338;25.502;2022-12-07T06:23:34;100746.56;;;6.23;100.00
2268;BME280;11052;43.338;25.502;2022-12-07T06:26:01;100744.00;;;6.16;100.00
2268;BME280;11052;43.338;25.502;2022-12-07T06:28:28;100756.03;;;6.12;100.00
2268;BME280;11052;43.338;25.502;2022-12-07T06:30:57;100763.72;;;6.21;100.00
2268;BME280;11052;43.338;25.502;2022-12-07T06:33:26;100751.69;;;6.27;100.00
2268;BME280;11052;43.338;25.502;2022-12-07T06:35:54;100763.69;;;6.31;100.00
2268;BME280;11052;43.338;25.502;2022-12-07T06:38:21;100763.69;;;6.31;100.00
2268;BME280;11052;43.338;25.502;2022-12-07T06:40:48;100768.81;;;6.34;100.00
2268;BME280;11052;43.338;25.502;2022-12-07T06:43:15;100772.22;;;6.36;100.00
2268;BME280;11052;43.338;25.502;2022-12-07T06:45:43;100771.41;;;6.32;100.00
2268;BME280;11052;43.338;25.502;2022-12-07T06:48:10;100773.91;;;6.43;100.00
2268;BME280;11052;43.338;25.502;2022-12-07T06:50:38;100768.78;;;6.37;100.00
2268;BME280;11052;43.338;25.502;2022-12-07T06:53:05;100767.91;;;6.41;100.00
2268;BME280;11052;43.338;25.502;2022-12-07T06:55:32;100766.19;;;6.41;100.00
2268;BME280;11052;43.338;25.502;2022-12-07T06:57:59;100760.22;;;6.36;100.00
2268;BME280;11052;43.338;25.502;2022-12-07T07:00:27;100761.91;;;6.39;100.00
2268;BME280;11052;43.338;25.502;2022-12-07T07:02:54;100759.34;;;6.40;100.00
2268;BME280;11052;43.338;25.502;2022-12-07T07:05:21;100757.63;;;6.38;100.00
2268;BME280;11052;43.338;25.502;2022-12-07T07:07:50;100763.63;;;6.40;100.00
2268;BME280;11052;43.338;25.502;2022-12-07T07:10:17;100759.31;;;6.42;100.00
2268;BME280;11052;43.338;25.502;2022-12-07T07:12:44;100755.00;;;6.47;100.00
2268;BME280;11052;43.338;25.502;2022-12-07T07:15:11;100758.50;;;6.38;100.00
2268;BME280;11052;43.338;25.502;2022-12-07T07:17:38;100760.25;;;6.27;100.00
2268;BME280;11052;43.338;25.502;2022-12-07T07:20:06;100759.44;;;6.22;100.00
2268;BME280;11052;43.338;25.502;2022-12-07T07:22:34;100750.84;;;6.21;100.00
2268;BME280;11052;43.338;25.502;2022-12-07T07:25:03;100758.59;;;6.17;100.00
2268;BME280;11052;43.338;25.502;2022-12-07T07:27:31;100765.47;;;6.16;100.00
2268;BME280;11052;43.338;25.502;2022-12-07T07:29:58;100766.25;;;6.34;100.00
2268;BME280;11052;43.338;25.502;2022-12-07T07:32:25;100756.75;;;6.42;100.00
2268;BME280;11052;43.338;25.502;2022-12-07T07:34:52;100763.63;;;6.43;100.00
2268;BME280;11052;43.338;25.502;2022-12-07T07:37:19;100760.13;;;6.50;100.00
2268;BME280;11052;43.338;25.502;2022-12-07T07:39:47;100774.69;;;6.58;100.00
2268;BME280;11052;43.338;25.502;2022-12-07T07:42:15;100770.41;;;6.56;100.00
2268;BME280;11052;43.338;25.502;2022-12-07T07:44:42;100773.81;;;6.60;100.00
2268;BME280;11052;43.338;25.502;2022-12-07T07:47:09;100766.06;;;6.64;100.00
2268;BME280;11052;43.338;25.502;2022-12-07T07:49:37;100762.66;;;6.61;100.00
2268;BME280;11052;43.338;25.502;2022-12-07T07:52:05;100754.19;;;6.39;100.00
2268;BME280;11052;43.338;25.502;2022-12-07T07:54:32;100750.78;;;6.34;100.00
2268;BME280;11052;43.338;25.502;2022-12-07T07:56:59;100756.72;;;6.49;100.00
2268;BME280;11052;43.338;25.502;2022-12-07T07:59:28;100760.94;;;6.60;100.00
2268;BME280;11052;43.338;25.502;2022-12-07T08:01:55;100766.88;;;6.72;100.00
2268;BME280;11052;43.338;25.502;2022-12-07T08:04:22;100765.81;;;6.95;100.00
2268;BME280;11052;43.338;25.502;2022-12-07T08:06:49;100769.31;;;6.89;100.00
2268;BME280;11052;43.338;25.502;2022-12-07T08:09:16;100776.19;;;6.90;100.00
2268;BME280;11052;43.338;25.502;2022-12-07T08:11:43;100775.19;;;7.03;100.00
2268;BME280;11052;43.338;25.502;2022-12-07T08:14:11;100775.03;;;7.23;100.00
2268;BME280;11052;43.338;25.502;2022-12-07T08:16:39;100778.34;;;7.39;100.00
2268;BME280;11052;43.338;25.502;2022-12-07T08:19:06;100781.66;;;7.51;100.00
2268;BME280;11052;43.338;25.502;2022-12-07T08:21:34;100767.78;;;7.62;100.00
2268;BME280;11052;43.338;25.502;2022-12-07T08:24:01;100766.00;;;7.68;100.00
2268;BME280;11052;43.338;25.502;2022-12-07T08:26:28;100771.28;;;7.57;100.00
2268;BME280;11052;43.338;25.502;2022-12-07T08:28:55;100777.50;;;7.37;100.00
2268;BME280;11052;43.338;25.502;2022-12-07T08:31:22;100768.97;;;7.30;100.00
2268;BME280;11052;43.338;25.502;2022-12-07T08:33:51;100773.25;;;7.30;100.00
2268;BME280;11052;43.338;25.502;2022-12-07T08:36:18;100776.63;;;7.36;100.00
2268;BME280;11052;43.338;25.502;2022-12-07T08:38:45;100765.41;;;7.42;100.00
2268;BME280;11052;43.338;25.502;2022-12-07T08:41:12;100775.63;;;7.52;100.00
2268;BME280;11052;43.338;25.502;2022-12-07T08:43:39;100768.72;;;7.54;100.00
2268;BME280;11052;43.338;25.502;2022-12-07T08:46:09;100760.97;;;7.56;100.00
2268;BME280;11052;43.338;25.502;2022-12-07T08:48:41;100760.19;;;7.49;100.00
2268;BME280;11052;43.338;25.502;2022-12-07T08:51:12;100754.34;;;7.31;100.00
2268;BME280;11052;43.338;25.502;2022-12-07T08:53:41;100750.13;;;7.20;100.00
2268;BME280;11052;43.338;25.502;2022-12-07T08:56:09;100742.50;;;7.10;100.00
2268;BME280;11052;43.338;25.502;2022-12-07T08:58:38;100733.97;;;7.00;100.00
2268;BME280;11052;43.338;25.502;2022-12-07T09:01:05;100734.78;;;7.07;100.00
2268;BME280;11052;43.338;25.502;2022-12-07T09:03:32;100738.09;;;7.21;100.00
2268;BME280;11052;43.338;25.502;2022-12-07T09:06:00;100727.00;;;7.11;100.00
2268;BME280;11052;43.338;25.502;2022-12-07T09:08:31;100732.19;;;7.10;100.00
2268;BME280;11052;43.338;25.502;2022-12-07T09:11:00;100724.53;;;7.01;100.00
2268;BME280;11052;43.338;25.502;2022-12-07T09:13:27;100720.13;;;7.12;100.00
2268;BME280;11052;43.338;25.502;2022-12-07T09:15:54;100711.44;;;7.22;100.00
2268;BME280;11052;43.338;25.502;2022-12-07T09:18:21;100703.63;;;7.31;100.00
2268;BME280;11052;43.338;25.502;2022-12-07T09:20:50;100697.56;;;7.35;100.00
2268;BME280;11052;43.338;25.502;2022-12-07T09:23:17;100699.25;;;7.38;100.00
2268;BME280;11052;43.338;25.502;2022-12-07T09:25:45;100699.09;;;7.53;100.00
2268;BME280;11052;43.338;25.502;2022-12-07T09:28:12;100693.88;;;7.57;100.00
2268;BME280;11052;43.338;25.502;2022-12-07T09:30:45;100692.34;;;7.41;100.00
2268;BME280;11052;43.338;25.502;2022-12-07T09:33:12;100700.19;;;7.31;100.00
2268;BME280;11052;43.338;25.502;2022-12-07T09:35:44;100706.16;;;7.34;100.00
2268;BME280;11052;43.338;25.502;2022-12-07T09:38:11;100704.31;;;7.48;100.00
2268;BME280;11052;43.338;25.502;2022-12-07T09:40:39;100702.47;;;7.60;100.00
2268;BME280;11052;43.338;25.502;2022-12-07T09:43:13;100691.28;;;7.61;100.00
2268;BME280;11052;43.338;25.502;2022-12-07T09:45:42;100684.50;;;7.52;100.00
2268;BME280;11052;43.338;25.502;2022-12-07T09:48:16;100682.97;;;7.34;100.00
2268;BME280;11052;43.338;25.502;2022-12-07T09:50:45;100676.75;;;7.52;100.00
2268;BME280;11052;43.338;25.502;2022-12-07T09:53:15;100669.00;;;7.52;100.00
2268;BME280;11052;43.338;25.502;2022-12-07T09:55:45;100670.69;;;7.56;100.00
2268;BME280;11052;43.338;25.502;2022-12-07T09:58:19;100664.66;;;7.55;100.00
2268;BME280;11052;43.338;25.502;2022-12-07T10:00:47;100653.56;;;7.49;100.00
2268;BME280;11052;43.338;25.502;2022-12-07T10:03:15;100655.28;;;7.48;100.00
2268;BME280;11052;43.338;25.502;2022-12-07T10:05:44;100649.13;;;7.62;100.00
2268;BME280;11052;43.338;25.502;2022-12-07T10:08:13;100655.94;;;7.66;100.00
2268;BME280;11052;43.338;25.502;2022-12-07T10:10:41;100646.56;;;7.60;100.00
2268;BME280;11052;43.338;25.502;2022-12-07T10:13:09;100636.97;;;7.70;100.00
2268;BME280;11052;43.338;25.502;2022-12-07T10:15:48;100631.06;;;7.62;100.00
2268;BME280;11052;43.338;25.502;2022-12-07T10:18:20;100629.22;;;7.70;100.00
2268;BME280;11052;43.338;25.502;2022-12-07T10:21:05;100623.06;;;7.80;100.00
2268;BME280;11052;43.338;25.502;2022-12-07T10:23:35;100615.25;;;7.84;100.00
2268;BME280;11052;43.338;25.502;2022-12-07T10:26:28;100606.78;;;7.76;100.00
2268;BME280;11052;43.338;25.502;2022-12-07T10:28:56;100608.19;;;7.96;100.00
2268;BME280;11052;43.338;25.502;2022-12-07T10:31:27;100604.44;;;8.18;100.00
2268;BME280;11052;43.338;25.502;2022-12-07T10:33:56;100598.91;;;8.42;100.00
2268;BME280;11052;43.338;25.502;2022-12-07T10:36:26;100600.44;;;8.54;100.00
2268;BME280;11052;43.338;25.502;2022-12-07T10:39:00;100611.25;;;8.74;100.00
2268;BME280;11052;43.338;25.502;2022-12-07T10:41:28;100608.41;;;8.90;100.00
2268;BME280;11052;43.338;25.502;2022-12-07T10:43:57;100610.09;;;8.92;100.00
2268;BME280;11052;43.338;25.502;2022-12-07T10:49:48;100603.66;;;9.13;100.00
2268;BME280;11052;43.338;25.502;2022-12-07T10:55:16;100598.88;;;9.36;100.00
2268;BME280;11052;43.338;25.502;2022-12-07T10:57:59;100589.97;;;9.51;100.00
2268;BME280;11052;43.338;25.502;2022-12-07T11:00:37;100584.38;;;9.68;100.00
2268;BME280;11052;43.338;25.502;2022-12-07T11:03:34;100580.09;;;9.67;100.00
2268;BME280;11052;43.338;25.502;2022-12-07T11:06:13;100578.78;;;9.49;100.00
2268;BME280;11052;43.338;25.502;2022-12-07T11:08:54;100579.13;;;9.32;100.00
2268;BME280;11052;43.338;25.502;2022-12-07T11:11:31;100574.81;;;9.33;100.00
2268;BME280;11052;43.338;25.502;2022-12-07T11:14:05;100575.16;;;9.16;100.00
2268;BME280;11052;43.338;25.502;2022-12-07T11:16:48;100566.63;;;9.11;100.00
2268;BME280;11052;43.338;25.502;2022-12-07T11:19:47;100570.84;;;9.15;100.00
2268;BME280;11052;43.338;25.502;2022-12-07T11:22:23;100569.03;;;9.20;100.00
2268;BME280;11052;43.338;25.502;2022-12-07T11:25:00;100561.00;;;9.34;100.00
2268;BME280;11052;43.338;25.502;2022-12-07T11:27:35;100552.28;;;9.38;100.00
2268;BME280;11052;43.338;25.502;2022-12-07T11:30:17;100560.94;;;9.37;100.00
2268;BME280;11052;43.338;25.502;2022-12-07T11:32:55;100554.91;;;9.36;100.00
2268;BME280;11052;43.338;25.502;2022-12-07T11:35:34;100547.84;;;9.44;100.00
2268;BME280;11052;43.338;25.502;2022-12-07T11:38:12;100542.38;;;9.57;100.00
2268;BME280;11052;43.338;25.502;2022-12-07T11:40:43;100536.25;;;9.59;100.00
2268;BME280;11052;43.338;25.502;2022-12-07T11:43:18;100531.66;;;9.72;100.00
2268;BME280;11052;43.338;25.502;2022-12-07T11:45:52;100536.13;;;9.65;100.00
2268;BME280;11052;43.338;25.502;2022-12-07T11:48:30;100526.41;;;9.75;100.00
2268;BME280;11052;43.338;25.502;2022-12-07T11:51:01;100515.34;;;9.68;100.00
2268;BME280;11052;43.338;25.502;2022-12-07T11:53:35;100516.66;;;9.86;100.00
2268;BME280;11052;43.338;25.502;2022-12-07T11:56:09;100513.22;;;9.85;100.00
2268;BME280;11052;43.338;25.502;2022-12-07T11:58:44;100515.44;;;9.65;100.00
2268;BME280;11052;43.338;25.502;2022-12-07T12:01:22;100510.75;;;9.81;100.00
2268;BME280;11052;43.338;25.502;2022-12-07T12:03:52;100506.59;;;9.74;100.00
2268;BME280;11052;43.338;25.502;2022-12-07T12:06:20;100502.38;;;9.70;100.00
2268;BME280;11052;43.338;25.502;2022-12-07T12:08:54;100495.47;;;9.70;100.00
2268;BME280;11052;43.338;25.502;2022-12-07T12:11:37;100494.00;;;9.59;100.00
2268;BME280;11052;43.338;25.502;2022-12-07T12:14:28;100494.00;;;9.59;100.00
2268;BME280;11052;43.338;25.502;2022-12-07T12:17:34;100492.13;;;9.65;100.00
2268;BME280;11052;43.338;25.502;2022-12-07T12:20:13;100490.31;;;9.69;100.00
2268;BME280;11052;43.338;25.502;2022-12-07T12:22:45;100485.94;;;9.72;100.00
2268;BME280;11052;43.338;25.502;2022-12-07T12:25:20;100484.16;;;9.74;100.00
2268;BME280;11052;43.338;25.502;2022-12-07T12:27:49;100481.38;;;9.82;100.00
2268;BME280;11052;43.338;25.502;2022-12-07T12:30:32;100481.22;;;9.88;100.00
2268;BME280;11052;43.338;25.502;2022-12-07T12:33:05;100480.78;;;10.06;100.00
2268;BME280;11052;43.338;25.502;2022-12-07T12:35:35;100475.72;;;10.02;100.00
2268;BME280;11052;43.338;25.502;2022-12-07T12:38:29;100480.34;;;9.89;100.00
2268;BME280;11052;43.338;25.502;2022-12-07T12:40:58;100479.38;;;9.93;100.00
2268;BME280;11052;43.338;25.502;2022-12-07T12:43:48;100480.19;;;9.95;100.00
2268;BME280;11052;43.338;25.502;2022-12-07T12:46:51;100483.00;;;9.86;100.00
2268;BME280;11052;43.338;25.502;2022-12-07T12:49:40;100484.56;;;9.93;100.00
2268;BME280;11052;43.338;25.502;2022-12-07T12:52:46;100477.84;;;9.86;100.00
2268;BME280;11052;43.338;25.502;2022-12-07T12:55:29;100472.56;;;9.89;100.00
2268;BME280;11052;43.338;25.502;2022-12-07T12:58:33;100468.03;;;9.99;100.00
2268;BME280;11052;43.338;25.502;2022-12-07T13:04:37;100473.72;;;9.77;100.00
2268;BME280;11052;43.338;25.502;2022-12-07T13:07:11;100471.91;;;9.81;100.00
2268;BME280;11052;43.338;25.502;2022-12-07T13:09:43;100470.25;;;9.78;100.00
2268;BME280;11052;43.338;25.502;2022-12-07T13:12:14;100471.94;;;9.79;100.00
2268;BME280;11052;43.338;25.502;2022-12-07T13:14:56;100470.19;;;9.81;100.00
2268;BME280;11052;43.338;25.502;2022-12-07T13:17:58;100471.50;;;9.62;100.00
2268;BME280;11052;43.338;25.502;2022-12-07T13:20:47;100466.03;;;9.39;100.00